Terminal Aerodrome Forecast
Issued by NWS

Home | Current Version | Previous Version | Text Only | Print | Product List | Glossary On
Versions: 1 2 3 4 5 6 7 8 9 10 11 12 13 14 15 16 17 18 19 20
000
FTUS43 KOAX 070217 AAA
TAFCDR
TAF AMD
KCDR 070217Z 0702/0724 31012KT P6SM OVC040
      TEMPO 0702/0704 4SM -RA BR OVC015
     FM070400 34010KT P6SM RA OVC035=

USA.gov is the U.S. government's official web portal to all federal, state and local government web resources and services.